sensor_id;sensor_type;location;lat;lon;timestamp;temperature;humidity
4081;DHT22;2055;50.074;8.436;2023-03-01T00:01:25;1.10;99.90
4081;DHT22;2055;50.074;8.436;2023-03-01T00:03:52;0.70;99.90
4081;DHT22;2055;50.074;8.436;2023-03-01T00:06:19;0.60;99.90
4081;DHT22;2055;50.074;8.436;2023-03-01T00:08:44;0.60;99.90
4081;DHT22;2055;50.074;8.436;2023-03-01T00:11:17;0.60;99.90
4081;DHT22;2055;50.074;8.436;2023-03-01T00:13:44;0.50;99.90
4081;DHT22;2055;50.074;8.436;2023-03-01T00:16:17;0.60;99.90
4081;DHT22;2055;50.074;8.436;2023-03-01T00:18:43;0.50;99.90
4081;DHT22;2055;50.074;8.436;2023-03-01T00:21:08;0.60;99.90
4081;DHT22;2055;50.074;8.436;2023-03-01T00:23:34;0.60;99.90
4081;DHT22;2055;50.074;8.436;2023-03-01T00:26:00;0.50;99.90
4081;DHT22;2055;50.074;8.436;2023-03-01T00:28:26;0.60;99.90
4081;DHT22;2055;50.074;8.436;2023-03-01T00:30:51;0.60;99.90
4081;DHT22;2055;50.074;8.436;2023-03-01T00:33:17;0.50;99.90
4081;DHT22;2055;50.074;8.436;2023-03-01T00:35:43;0.50;99.90
4081;DHT22;2055;50.074;8.436;2023-03-01T00:38:09;0.60;99.90
4081;DHT22;2055;50.074;8.436;2023-03-01T00:40:36;0.50;99.90
4081;DHT22;2055;50.074;8.436;2023-03-01T00:43:02;0.50;99.90
4081;DHT22;2055;50.074;8.436;2023-03-01T00:45:28;0.70;99.90
4081;DHT22;2055;50.074;8.436;2023-03-01T00:47:54;0.40;99.90
4081;DHT22;2055;50.074;8.436;2023-03-01T00:50:20;0.50;99.90
4081;DHT22;2055;50.074;8.436;2023-03-01T00:52:46;0.50;99.90
4081;DHT22;2055;50.074;8.436;2023-03-01T00:55:12;0.40;99.90
4081;DHT22;2055;50.074;8.436;2023-03-01T00:57:38;0.40;99.90
4081;DHT22;2055;50.074;8.436;2023-03-01T01:00:05;0.40;99.90
4081;DHT22;2055;50.074;8.436;2023-03-01T01:02:33;0.40;99.90
4081;DHT22;2055;50.074;8.436;2023-03-01T01:04:58;0.30;99.90
4081;DHT22;2055;50.074;8.436;2023-03-01T01:07:24;0.30;99.90
4081;DHT22;2055;50.074;8.436;2023-03-01T01:09:50;0.40;99.90
4081;DHT22;2055;50.074;8.436;2023-03-01T01:12:15;0.50;99.90
4081;DHT22;2055;50.074;8.436;2023-03-01T01:14:41;0.40;99.90
4081;DHT22;2055;50.074;8.436;2023-03-01T01:17:07;0.40;99.90
4081;DHT22;2055;50.074;8.436;2023-03-01T01:19:33;0.40;99.90
4081;DHT22;2055;50.074;8.436;2023-03-01T01:21:58;0.40;99.90
4081;DHT22;2055;50.074;8.436;2023-03-01T01:24:24;0.40;99.90
4081;DHT22;2055;50.074;8.436;2023-03-01T01:26:50;0.40;99.90
4081;DHT22;2055;50.074;8.436;2023-03-01T01:29:15;0.40;99.90
4081;DHT22;2055;50.074;8.436;2023-03-01T01:31:42;0.70;99.90
4081;DHT22;2055;50.074;8.436;2023-03-01T01:34:13;0.40;99.90
4081;DHT22;2055;50.074;8.436;2023-03-01T01:36:39;0.50;99.90
4081;DHT22;2055;50.074;8.436;2023-03-01T01:39:05;0.70;99.90
4081;DHT22;2055;50.074;8.436;2023-03-01T01:41:30;0.50;99.90
4081;DHT22;2055;50.074;8.436;2023-03-01T01:44:24;0.50;99.90
4081;DHT22;2055;50.074;8.436;2023-03-01T01:46:54;0.60;99.90
4081;DHT22;2055;50.074;8.436;2023-03-01T01:49:43;0.60;99.90
4081;DHT22;2055;50.074;8.436;2023-03-01T01:52:15;0.70;99.90
4081;DHT22;2055;50.074;8.436;2023-03-01T01:55:14;0.70;99.90
4081;DHT22;2055;50.074;8.436;2023-03-01T01:58:02;0.70;99.90
4081;DHT22;2055;50.074;8.436;2023-03-01T02:00:30;0.70;99.90
4081;DHT22;2055;50.074;8.436;2023-03-01T02:02:59;0.60;99.90
4081;DHT22;2055;50.074;8.436;2023-03-01T02:08:06;0.50;99.90
4081;DHT22;2055;50.074;8.436;2023-03-01T02:10:34;0.60;99.90
4081;DHT22;2055;50.074;8.436;2023-03-01T02:13:00;0.60;99.90
4081;DHT22;2055;50.074;8.436;2023-03-01T02:15:25;0.70;99.90
4081;DHT22;2055;50.074;8.436;2023-03-01T02:17:52;0.70;99.90
4081;DHT22;2055;50.074;8.436;2023-03-01T02:23:29;0.80;99.90
4081;DHT22;2055;50.074;8.436;2023-03-01T02:28:48;0.90;99.90
4081;DHT22;2055;50.074;8.436;2023-03-01T02:31:19;0.90;99.90
4081;DHT22;2055;50.074;8.436;2023-03-01T02:34:05;0.90;99.90
4081;DHT22;2055;50.074;8.436;2023-03-01T02:36:36;0.90;99.90
4081;DHT22;2055;50.074;8.436;2023-03-01T02:39:04;0.90;99.90
4081;DHT22;2055;50.074;8.436;2023-03-01T02:41:35;0.90;99.90
4081;DHT22;2055;50.074;8.436;2023-03-01T02:44:03;0.90;99.90
4081;DHT22;2055;50.074;8.436;2023-03-01T02:46:28;0.90;99.90
4081;DHT22;2055;50.074;8.436;2023-03-01T02:48:56;0.90;99.90
4081;DHT22;2055;50.074;8.436;2023-03-01T02:51:24;2.50;99.90
4081;DHT22;2055;50.074;8.436;2023-03-01T02:56:36;0.80;99.90
4081;DHT22;2055;50.074;8.436;2023-03-01T02:59:02;0.90;99.90
4081;DHT22;2055;50.074;8.436;2023-03-01T03:01:28;0.90;99.90
4081;DHT22;2055;50.074;8.436;2023-03-01T03:04:04;0.90;99.90
4081;DHT22;2055;50.074;8.436;2023-03-01T03:06:30;0.80;99.90
4081;DHT22;2055;50.074;8.436;2023-03-01T03:08:55;0.90;99.90
4081;DHT22;2055;50.074;8.436;2023-03-01T03:11:21;0.90;99.90
4081;DHT22;2055;50.074;8.436;2023-03-01T03:13:46;0.80;99.90
4081;DHT22;2055;50.074;8.436;2023-03-01T03:16:13;0.80;99.90
4081;DHT22;2055;50.074;8.436;2023-03-01T03:18:39;0.80;99.90
4081;DHT22;2055;50.074;8.436;2023-03-01T03:21:08;0.80;99.90
4081;DHT22;2055;50.074;8.436;2023-03-01T03:23:35;0.70;99.90
4081;DHT22;2055;50.074;8.436;2023-03-01T03:26:02;0.80;99.90
4081;DHT22;2055;50.074;8.436;2023-03-01T03:28:30;0.80;99.90
4081;DHT22;2055;50.074;8.436;2023-03-01T03:30:56;0.80;99.90
4081;DHT22;2055;50.074;8.436;2023-03-01T03:33:21;0.80;99.90
4081;DHT22;2055;50.074;8.436;2023-03-01T03:35:48;0.80;99.90
4081;DHT22;2055;50.074;8.436;2023-03-01T03:38:17;1.00;99.90
4081;DHT22;2055;50.074;8.436;2023-03-01T03:40:46;0.80;99.90
4081;DHT22;2055;50.074;8.436;2023-03-01T03:43:15;0.60;99.90
4081;DHT22;2055;50.074;8.436;2023-03-01T03:45:41;0.70;99.90
4081;DHT22;2055;50.074;8.436;2023-03-01T03:48:08;0.70;99.90
4081;DHT22;2055;50.074;8.436;2023-03-01T03:50:35;0.80;99.90
4081;DHT22;2055;50.074;8.436;2023-03-01T03:53:03;0.60;99.90
4081;DHT22;2055;50.074;8.436;2023-03-01T03:55:29;0.80;99.90
4081;DHT22;2055;50.074;8.436;2023-03-01T03:57:57;0.60;99.90
4081;DHT22;2055;50.074;8.436;2023-03-01T04:00:23;0.70;99.90
4081;DHT22;2055;50.074;8.436;2023-03-01T04:02:49;0.60;99.90
4081;DHT22;2055;50.074;8.436;2023-03-01T04:05:17;0.70;99.90
4081;DHT22;2055;50.074;8.436;2023-03-01T04:07:44;0.90;99.90
4081;DHT22;2055;50.074;8.436;2023-03-01T04:10:12;0.60;99.90
4081;DHT22;2055;50.074;8.436;2023-03-01T04:12:38;0.60;99.90
4081;DHT22;2055;50.074;8.436;2023-03-01T04:15:05;0.50;99.90
4081;DHT22;2055;50.074;8.436;2023-03-01T04:17:39;0.40;99.90
4081;DHT22;2055;50.074;8.436;2023-03-01T04:20:05;0.50;99.90
4081;DHT22;2055;50.074;8.436;2023-03-01T04:22:32;0.50;99.90
4081;DHT22;2055;50.074;8.436;2023-03-01T04:24:58;0.50;99.90
4081;DHT22;2055;50.074;8.436;2023-03-01T04:27:27;0.50;99.90
4081;DHT22;2055;50.074;8.436;2023-03-01T04:29:52;0.50;99.90
4081;DHT22;2055;50.074;8.436;2023-03-01T04:32:18;0.40;99.90
4081;DHT22;2055;50.074;8.436;2023-03-01T04:34:43;0.40;99.90
4081;DHT22;2055;50.074;8.436;2023-03-01T04:37:09;0.40;99.90
4081;DHT22;2055;50.074;8.436;2023-03-01T04:39:34;0.30;99.90
4081;DHT22;2055;50.074;8.436;2023-03-01T04:42:13;0.40;99.90
4081;DHT22;2055;50.074;8.436;2023-03-01T04:44:39;0.30;99.90
4081;DHT22;2055;50.074;8.436;2023-03-01T04:47:05;0.30;99.90
4081;DHT22;2055;50.074;8.436;2023-03-01T04:49:31;0.30;99.90
4081;DHT22;2055;50.074;8.436;2023-03-01T04:51:57;0.30;99.90
4081;DHT22;2055;50.074;8.436;2023-03-01T04:54:30;0.30;99.90
4081;DHT22;2055;50.074;8.436;2023-03-01T04:56:55;0.20;99.90
4081;DHT22;2055;50.074;8.436;2023-03-01T04:59:21;0.20;99.90
4081;DHT22;2055;50.074;8.436;2023-03-01T05:01:50;0.20;99.90
4081;DHT22;2055;50.074;8.436;2023-03-01T05:04:16;0.20;99.90
4081;DHT22;2055;50.074;8.436;2023-03-01T05:06:42;0.20;99.90
4081;DHT22;2055;50.074;8.436;2023-03-01T05:09:08;0.20;99.90
4081;DHT22;2055;50.074;8.436;2023-03-01T05:11:33;0.20;99.90
4081;DHT22;2055;50.074;8.436;2023-03-01T05:14:11;0.30;99.90
4081;DHT22;2055;50.074;8.436;2023-03-01T05:16:37;0.30;99.90
4081;DHT22;2055;50.074;8.436;2023-03-01T05:19:03;0.40;99.90
4081;DHT22;2055;50.074;8.436;2023-03-01T05:21:41;0.40;99.90
4081;DHT22;2055;50.074;8.436;2023-03-01T05:24:27;0.30;99.90
4081;DHT22;2055;50.074;8.436;2023-03-01T05:26:53;0.40;99.90
4081;DHT22;2055;50.074;8.436;2023-03-01T05:29:22;0.70;99.90
4081;DHT22;2055;50.074;8.436;2023-03-01T05:31:55;0.40;99.90
4081;DHT22;2055;50.074;8.436;2023-03-01T05:34:25;0.40;99.90
4081;DHT22;2055;50.074;8.436;2023-03-01T05:36:52;0.50;99.90
4081;DHT22;2055;50.074;8.436;2023-03-01T05:39:22;0.40;99.90
4081;DHT22;2055;50.074;8.436;2023-03-01T05:41:52;0.80;99.90
4081;DHT22;2055;50.074;8.436;2023-03-01T05:44:18;0.90;99.90
4081;DHT22;2055;50.074;8.436;2023-03-01T05:46:43;0.50;99.90
4081;DHT22;2055;50.074;8.436;2023-03-01T05:49:10;0.50;99.90
4081;DHT22;2055;50.074;8.436;2023-03-01T05:51:36;0.50;99.90
4081;DHT22;2055;50.074;8.436;2023-03-01T05:54:03;0.60;99.90
4081;DHT22;2055;50.074;8.436;2023-03-01T05:56:32;0.60;99.90
4081;DHT22;2055;50.074;8.436;2023-03-01T05:58:58;0.70;99.90
4081;DHT22;2055;50.074;8.436;2023-03-01T06:01:23;0.70;99.90
4081;DHT22;2055;50.074;8.436;2023-03-01T06:03:49;0.70;99.90
4081;DHT22;2055;50.074;8.436;2023-03-01T06:06:14;0.70;99.90
4081;DHT22;2055;50.074;8.436;2023-03-01T06:08:40;0.70;99.90
4081;DHT22;2055;50.074;8.436;2023-03-01T06:11:05;0.80;99.90
4081;DHT22;2055;50.074;8.436;2023-03-01T06:13:32;0.80;99.90
4081;DHT22;2055;50.074;8.436;2023-03-01T06:15:58;0.80;99.90
4081;DHT22;2055;50.074;8.436;2023-03-01T06:18:23;0.80;99.90
4081;DHT22;2055;50.074;8.436;2023-03-01T06:20:55;0.80;99.90
4081;DHT22;2055;50.074;8.436;2023-03-01T06:23:21;0.80;99.90
4081;DHT22;2055;50.074;8.436;2023-03-01T06:25:47;0.80;99.90
4081;DHT22;2055;50.074;8.436;2023-03-01T06:28:12;0.80;99.90
4081;DHT22;2055;50.074;8.436;2023-03-01T06:30:38;0.90;99.90
4081;DHT22;2055;50.074;8.436;2023-03-01T06:33:03;0.90;99.90
4081;DHT22;2055;50.074;8.436;2023-03-01T06:35:30;0.90;99.90
4081;DHT22;2055;50.074;8.436;2023-03-01T06:37:56;1.30;99.90
4081;DHT22;2055;50.074;8.436;2023-03-01T06:40:23;0.90;99.90
4081;DHT22;2055;50.074;8.436;2023-03-01T06:42:49;0.90;99.90
4081;DHT22;2055;50.074;8.436;2023-03-01T06:45:16;0.90;99.90
4081;DHT22;2055;50.074;8.436;2023-03-01T06:47:42;0.90;99.90
4081;DHT22;2055;50.074;8.436;2023-03-01T06:50:08;0.80;99.90
4081;DHT22;2055;50.074;8.436;2023-03-01T06:52:34;0.90;99.90
4081;DHT22;2055;50.074;8.436;2023-03-01T06:55:00;0.90;99.90
4081;DHT22;2055;50.074;8.436;2023-03-01T06:57:26;0.90;99.90
4081;DHT22;2055;50.074;8.436;2023-03-01T06:59:52;0.90;99.90
4081;DHT22;2055;50.074;8.436;2023-03-01T07:02:18;0.80;99.90
4081;DHT22;2055;50.074;8.436;2023-03-01T07:04:43;0.90;99.90
4081;DHT22;2055;50.074;8.436;2023-03-01T07:07:09;0.90;99.90
4081;DHT22;2055;50.074;8.436;2023-03-01T07:09:35;2.70;99.90
4081;DHT22;2055;50.074;8.436;2023-03-01T07:12:01;0.90;99.90
4081;DHT22;2055;50.074;8.436;2023-03-01T07:14:27;0.90;99.90
4081;DHT22;2055;50.074;8.436;2023-03-01T07:16:53;1.00;99.90
4081;DHT22;2055;50.074;8.436;2023-03-01T07:19:19;1.10;99.90
4081;DHT22;2055;50.074;8.436;2023-03-01T07:21:44;1.10;99.90
4081;DHT22;2055;50.074;8.436;2023-03-01T07:24:10;1.20;99.90
4081;DHT22;2055;50.074;8.436;2023-03-01T07:26:36;1.20;99.90
4081;DHT22;2055;50.074;8.436;2023-03-01T07:29:03;1.30;99.90
4081;DHT22;2055;50.074;8.436;2023-03-01T07:31:29;1.30;99.90
4081;DHT22;2055;50.074;8.436;2023-03-01T07:33:55;1.40;99.90
4081;DHT22;2055;50.074;8.436;2023-03-01T07:36:20;1.40;99.90
4081;DHT22;2055;50.074;8.436;2023-03-01T07:38:46;1.50;99.90
4081;DHT22;2055;50.074;8.436;2023-03-01T07:41:11;1.60;99.90
4081;DHT22;2055;50.074;8.436;2023-03-01T07:43:37;1.60;99.90
4081;DHT22;2055;50.074;8.436;2023-03-01T07:46:03;1.60;99.90
4081;DHT22;2055;50.074;8.436;2023-03-01T07:48:30;1.70;99.90
4081;DHT22;2055;50.074;8.436;2023-03-01T07:51:02;1.90;99.90
4081;DHT22;2055;50.074;8.436;2023-03-01T07:53:28;1.80;99.90
4081;DHT22;2055;50.074;8.436;2023-03-01T07:56:04;2.00;99.90
4081;DHT22;2055;50.074;8.436;2023-03-01T07:58:30;1.80;99.90
4081;DHT22;2055;50.074;8.436;2023-03-01T08:00:55;2.10;99.90
4081;DHT22;2055;50.074;8.436;2023-03-01T08:03:21;2.00;99.90
4081;DHT22;2055;50.074;8.436;2023-03-01T08:05:46;2.10;99.90
4081;DHT22;2055;50.074;8.436;2023-03-01T08:08:12;2.10;99.90
4081;DHT22;2055;50.074;8.436;2023-03-01T08:10:37;2.20;99.90
4081;DHT22;2055;50.074;8.436;2023-03-01T08:13:03;2.20;99.90
4081;DHT22;2055;50.074;8.436;2023-03-01T08:15:28;2.30;99.90
4081;DHT22;2055;50.074;8.436;2023-03-01T08:17:54;2.40;99.90
4081;DHT22;2055;50.074;8.436;2023-03-01T08:20:19;2.50;99.90
4081;DHT22;2055;50.074;8.436;2023-03-01T08:22:45;2.50;99.90
4081;DHT22;2055;50.074;8.436;2023-03-01T08:25:10;2.60;99.90
4081;DHT22;2055;50.074;8.436;2023-03-01T08:27:36;2.70;99.90
4081;DHT22;2055;50.074;8.436;2023-03-01T08:30:02;2.70;99.90
4081;DHT22;2055;50.074;8.436;2023-03-01T08:32:28;2.80;99.90
4081;DHT22;2055;50.074;8.436;2023-03-01T08:34:53;2.80;99.90
4081;DHT22;2055;50.074;8.436;2023-03-01T08:37:19;2.90;99.90
4081;DHT22;2055;50.074;8.436;2023-03-01T08:39:44;3.00;99.90
4081;DHT22;2055;50.074;8.436;2023-03-01T08:42:10;3.10;99.90
4081;DHT22;2055;50.074;8.436;2023-03-01T08:44:35;3.10;99.90
4081;DHT22;2055;50.074;8.436;2023-03-01T08:47:01;3.20;99.90
4081;DHT22;2055;50.074;8.436;2023-03-01T08:49:27;3.20;99.90
4081;DHT22;2055;50.074;8.436;2023-03-01T08:51:53;3.30;99.90
4081;DHT22;2055;50.074;8.436;2023-03-01T08:54:20;3.40;99.90
4081;DHT22;2055;50.074;8.436;2023-03-01T08:56:46;3.40;99.90
4081;DHT22;2055;50.074;8.436;2023-03-01T08:59:14;3.40;99.90
4081;DHT22;2055;50.074;8.436;2023-03-01T09:01:40;3.60;99.90
4081;DHT22;2055;50.074;8.436;2023-03-01T09:04:08;3.60;99.90
4081;DHT22;2055;50.074;8.436;2023-03-01T09:06:35;3.70;99.90
4081;DHT22;2055;50.074;8.436;2023-03-01T09:09:01;4.10;99.90
4081;DHT22;2055;50.074;8.436;2023-03-01T09:11:28;3.80;99.90
4081;DHT22;2055;50.074;8.436;2023-03-01T09:13:54;4.10;99.90
4081;DHT22;2055;50.074;8.436;2023-03-01T09:16:21;3.80;99.90
4081;DHT22;2055;50.074;8.436;2023-03-01T09:18:52;3.90;99.90
4081;DHT22;2055;50.074;8.436;2023-03-01T09:21:19;3.90;99.90
4081;DHT22;2055;50.074;8.436;2023-03-01T09:23:47;4.00;99.90
4081;DHT22;2055;50.074;8.436;2023-03-01T09:26:18;3.90;99.90
4081;DHT22;2055;50.074;8.436;2023-03-01T09:28:48;3.90;99.90
4081;DHT22;2055;50.074;8.436;2023-03-01T09:31:15;4.10;99.90
4081;DHT22;2055;50.074;8.436;2023-03-01T09:33:42;4.10;99.90
4081;DHT22;2055;50.074;8.436;2023-03-01T09:36:12;4.10;99.90
4081;DHT22;2055;50.074;8.436;2023-03-01T09:38:38;4.20;99.90
4081;DHT22;2055;50.074;8.436;2023-03-01T09:44:13;3.40;99.90
4081;DHT22;2055;50.074;8.436;2023-03-01T09:46:43;4.30;99.90
4081;DHT22;2055;50.074;8.436;2023-03-01T09:49:15;4.40;99.90
4081;DHT22;2055;50.074;8.436;2023-03-01T09:51:46;4.50;99.90
4081;DHT22;2055;50.074;8.436;2023-03-01T09:54:15;4.40;99.90
4081;DHT22;2055;50.074;8.436;2023-03-01T09:56:57;4.60;99.90
4081;DHT22;2055;50.074;8.436;2023-03-01T09:59:38;4.50;99.90
4081;DHT22;2055;50.074;8.436;2023-03-01T10:05:34;4.70;99.90
4081;DHT22;2055;50.074;8.436;2023-03-01T10:10:37;4.80;99.90
4081;DHT22;2055;50.074;8.436;2023-03-01T10:13:14;4.90;99.90
4081;DHT22;2055;50.074;8.436;2023-03-01T10:15:50;5.00;99.90
4081;DHT22;2055;50.074;8.436;2023-03-01T10:18:22;5.20;99.90
4081;DHT22;2055;50.074;8.436;2023-03-01T10:21:12;5.20;99.90
4081;DHT22;2055;50.074;8.436;2023-03-01T10:23:39;5.10;99.90
4081;DHT22;2055;50.074;8.436;2023-03-01T10:26:14;5.20;99.90
4081;DHT22;2055;50.074;8.436;2023-03-01T10:29:02;5.50;99.90
4081;DHT22;2055;50.074;8.436;2023-03-01T10:31:42;8.20;99.90
4081;DHT22;2055;50.074;8.436;2023-03-01T10:34:30;11.50;99.90
4081;DHT22;2055;50.074;8.436;2023-03-01T10:36:59;12.10;98.90
4081;DHT22;2055;50.074;8.436;2023-03-01T10:39:26;12.90;98.10
4081;DHT22;2055;50.074;8.436;2023-03-01T10:42:00;12.30;95.20
4081;DHT22;2055;50.074;8.436;2023-03-01T10:47:01;12.90;94.00
4081;DHT22;2055;50.074;8.436;2023-03-01T10:49:27;14.20;93.70
4081;DHT22;2055;50.074;8.436;2023-03-01T10:51:54;15.30;93.00
4081;DHT22;2055;50.074;8.436;2023-03-01T10:54:22;13.90;90.80
4081;DHT22;2055;50.074;8.436;2023-03-01T10:56:54;13.70;90.20
4081;DHT22;2055;50.074;8.436;2023-03-01T10:59:28;13.90;90.00
4081;DHT22;2055;50.074;8.436;2023-03-01T11:04:39;13.70;90.20
4081;DHT22;2055;50.074;8.436;2023-03-01T11:07:04;14.00;88.40
4081;DHT22;2055;50.074;8.436;2023-03-01T11:09:33;14.40;89.00
4081;DHT22;2055;50.074;8.436;2023-03-01T11:12:13;14.20;87.60
4081;DHT22;2055;50.074;8.436;2023-03-01T11:14:48;14.80;86.50
4081;DHT22;2055;50.074;8.436;2023-03-01T11:17:30;14.80;85.80
4081;DHT22;2055;50.074;8.436;2023-03-01T11:22:50;13.30;84.00
4081;DHT22;2055;50.074;8.436;2023-03-01T11:25:17;13.80;84.70
4081;DHT22;2055;50.074;8.436;2023-03-01T11:27:45;14.60;85.30
4081;DHT22;2055;50.074;8.436;2023-03-01T11:30:36;13.80;82.20
4081;DHT22;2055;50.074;8.436;2023-03-01T11:38:40;13.10;81.30
4081;DHT22;2055;50.074;8.436;2023-03-01T11:41:25;12.80;80.90
4081;DHT22;2055;50.074;8.436;2023-03-01T11:43:58;13.20;83.70
4081;DHT22;2055;50.074;8.436;2023-03-01T11:51:41;12.10;81.30
4081;DHT22;2055;50.074;8.436;2023-03-01T11:54:18;12.60;81.70
4081;DHT22;2055;50.074;8.436;2023-03-01T11:56:57;12.40;79.80
4081;DHT22;2055;50.074;8.436;2023-03-01T11:59:32;12.00;80.40
4081;DHT22;2055;50.074;8.436;2023-03-01T12:02:25;12.20;80.30
4081;DHT22;2055;50.074;8.436;2023-03-01T12:10:29;11.90;80.70
4081;DHT22;2055;50.074;8.436;2023-03-01T12:24:16;11.50;80.80
4081;DHT22;2055;50.074;8.436;2023-03-01T12:29:48;11.00;79.20
4081;DHT22;2055;50.074;8.436;2023-03-01T12:32:30;10.90;79.70
4081;DHT22;2055;50.074;8.436;2023-03-01T12:35:25;11.10;80.60
4081;DHT22;2055;50.074;8.436;2023-03-01T12:38:22;10.70;79.00
4081;DHT22;2055;50.074;8.436;2023-03-01T12:43:50;10.40;80.00
4081;DHT22;2055;50.074;8.436;2023-03-01T12:49:13;10.20;79.90
4081;DHT22;2055;50.074;8.436;2023-03-01T12:51:40;10.50;79.80
4081;DHT22;2055;50.074;8.436;2023-03-01T12:54:16;10.80;80.50
4081;DHT22;2055;50.074;8.436;2023-03-01T12:56:46;10.60;80.40
4081;DHT22;2055;50.074;8.436;2023-03-01T13:02:22;10.50;80.40
4081;DHT22;2055;50.074;8.436;2023-03-01T13:07:44;10.90;80.70
4081;DHT22;2055;50.074;8.436;2023-03-01T13:13:22;10.70;79.50
4081;DHT22;2055;50.074;8.436;2023-03-01T13:15:49;10.70;79.30
4081;DHT22;2055;50.074;8.436;2023-03-01T13:31:10;11.40;79.70
4081;DHT22;2055;50.074;8.436;2023-03-01T13:34:02;11.50;80.40
4081;DHT22;2055;50.074;8.436;2023-03-01T13:39:26;11.20;76.30
4081;DHT22;2055;50.074;8.436;2023-03-01T13:41:54;11.20;76.80
4081;DHT22;2055;50.074;8.436;2023-03-01T13:44:35;11.40;79.30
4081;DHT22;2055;50.074;8.436;2023-03-01T13:47:16;11.80;80.30
4081;DHT22;2055;50.074;8.436;2023-03-01T13:49:53;11.80;78.00
4081;DHT22;2055;50.074;8.436;2023-03-01T13:52:42;11.90;79.10
4081;DHT22;2055;50.074;8.436;2023-03-01T13:57:43;12.70;78.00
4081;DHT22;2055;50.074;8.436;2023-03-01T14:03:02;12.10;78.20
4081;DHT22;2055;50.074;8.436;2023-03-01T14:05:29;11.60;77.30
4081;DHT22;2055;50.074;8.436;2023-03-01T14:07:55;11.20;77.60
4081;DHT22;2055;50.074;8.436;2023-03-01T14:10:21;11.20;78.70
4081;DHT22;2055;50.074;8.436;2023-03-01T14:13:03;11.50;79.80
4081;DHT22;2055;50.074;8.436;2023-03-01T14:15:38;11.60;79.10
4081;DHT22;2055;50.074;8.436;2023-03-01T14:18:15;11.40;78.40
4081;DHT22;2055;50.074;8.436;2023-03-01T14:20:45;11.10;78.30
4081;DHT22;2055;50.074;8.436;2023-03-01T14:23:19;11.30;79.00
4081;DHT22;2055;50.074;8.436;2023-03-01T14:25:54;14.20;81.10
4081;DHT22;2055;50.074;8.436;2023-03-01T14:28:31;11.50;77.90
4081;DHT22;2055;50.074;8.436;2023-03-01T14:31:00;11.30;77.40
4081;DHT22;2055;50.074;8.436;2023-03-01T14:33:31;11.50;77.90
4081;DHT22;2055;50.074;8.436;2023-03-01T14:36:09;11.80;78.40
4081;DHT22;2055;50.074;8.436;2023-03-01T14:38:46;11.50;77.30
4081;DHT22;2055;50.074;8.436;2023-03-01T14:41:17;11.90;78.20
4081;DHT22;2055;50.074;8.436;2023-03-01T14:43:55;11.90;77.50
4081;DHT22;2055;50.074;8.436;2023-03-01T14:46:36;11.60;77.20
4081;DHT22;2055;50.074;8.436;2023-03-01T14:51:29;11.30;78.00
4081;DHT22;2055;50.074;8.436;2023-03-01T14:53:55;11.50;78.20
4081;DHT22;2055;50.074;8.436;2023-03-01T14:56:21;11.70;78.50
4081;DHT22;2055;50.074;8.436;2023-03-01T14:58:51;11.60;78.30
4081;DHT22;2055;50.074;8.436;2023-03-01T15:01:17;12.10;79.90
4081;DHT22;2055;50.074;8.436;2023-03-01T15:03:47;12.20;79.00
4081;DHT22;2055;50.074;8.436;2023-03-01T15:06:22;12.80;78.60
4081;DHT22;2055;50.074;8.436;2023-03-01T15:08:50;12.10;76.50
4081;DHT22;2055;50.074;8.436;2023-03-01T15:11:28;11.60;76.60
4081;DHT22;2055;50.074;8.436;2023-03-01T15:13:54;11.30;76.80
4081;DHT22;2055;50.074;8.436;2023-03-01T15:16:31;11.20;76.80
4081;DHT22;2055;50.074;8.436;2023-03-01T15:19:00;11.30;77.20
4081;DHT22;2055;50.074;8.436;2023-03-01T15:21:30;11.40;77.00
4081;DHT22;2055;50.074;8.436;2023-03-01T15:24:06;11.30;77.10
4081;DHT22;2055;50.074;8.436;2023-03-01T15:26:42;11.00;76.60
4081;DHT22;2055;50.074;8.436;2023-03-01T15:29:18;11.00;77.00
4081;DHT22;2055;50.074;8.436;2023-03-01T15:31:55;11.00;77.00
4081;DHT22;2055;50.074;8.436;2023-03-01T15:34:25;10.70;76.70
4081;DHT22;2055;50.074;8.436;2023-03-01T15:36:53;10.60;76.70
4081;DHT22;2055;50.074;8.436;2023-03-01T15:39:40;10.50;76.90
4081;DHT22;2055;50.074;8.436;2023-03-01T15:42:41;10.60;77.00
4081;DHT22;2055;50.074;8.436;2023-03-01T15:47:50;10.80;77.20
4081;DHT22;2055;50.074;8.436;2023-03-01T15:52:52;10.40;77.80
4081;DHT22;2055;50.074;8.436;2023-03-01T15:55:29;9.90;78.90
4081;DHT22;2055;50.074;8.436;2023-03-01T15:58:04;9.50;79.40
4081;DHT22;2055;50.074;8.436;2023-03-01T16:00:32;8.90;80.80
4081;DHT22;2055;50.074;8.436;2023-03-01T16:02:58;8.50;81.80
4081;DHT22;2055;50.074;8.436;2023-03-01T16:05:26;8.30;82.80
4081;DHT22;2055;50.074;8.436;2023-03-01T16:07:53;8.20;85.00
4081;DHT22;2055;50.074;8.436;2023-03-01T16:10:20;8.00;85.70
4081;DHT22;2055;50.074;8.436;2023-03-01T16:12:46;7.90;87.60
4081;DHT22;2055;50.074;8.436;2023-03-01T16:15:27;7.80;89.10
4081;DHT22;2055;50.074;8.436;2023-03-01T16:17:53;7.60;89.00
4081;DHT22;2055;50.074;8.436;2023-03-01T16:20:19;7.50;90.00
4081;DHT22;2055;50.074;8.436;2023-03-01T16:22:46;7.40;90.10
4081;DHT22;2055;50.074;8.436;2023-03-01T16:25:17;7.30;90.60
4081;DHT22;2055;50.074;8.436;2023-03-01T16:27:45;7.20;91.20
4081;DHT22;2055;50.074;8.436;2023-03-01T16:30:12;7.10;91.10
4081;DHT22;2055;50.074;8.436;2023-03-01T16:32:39;7.10;90.50
4081;DHT22;2055;50.074;8.436;2023-03-01T16:35:06;7.00;90.80
4081;DHT22;2055;50.074;8.436;2023-03-01T16:37:33;6.90;90.90
4081;DHT22;2055;50.074;8.436;2023-03-01T16:39:58;6.90;91.30
4081;DHT22;2055;50.074;8.436;2023-03-01T16:42:24;6.80;91.80
4081;DHT22;2055;50.074;8.436;2023-03-01T16:44:55;6.70;92.10
4081;DHT22;2055;50.074;8.436;2023-03-01T16:47:20;6.70;92.40
4081;DHT22;2055;50.074;8.436;2023-03-01T16:49:46;6.60;92.20
4081;DHT22;2055;50.074;8.436;2023-03-01T16:52:11;6.50;92.40
4081;DHT22;2055;50.074;8.436;2023-03-01T16:54:37;6.50;92.20
4081;DHT22;2055;50.074;8.436;2023-03-01T16:57:02;6.40;91.80
4081;DHT22;2055;50.074;8.436;2023-03-01T16:59:28;6.40;92.00
4081;DHT22;2055;50.074;8.436;2023-03-01T17:01:54;6.30;92.20
4081;DHT22;2055;50.074;8.436;2023-03-01T17:04:19;6.20;91.90
4081;DHT22;2055;50.074;8.436;2023-03-01T17:06:45;6.20;91.40
4081;DHT22;2055;50.074;8.436;2023-03-01T17:09:12;6.10;91.50
4081;DHT22;2055;50.074;8.436;2023-03-01T17:11:37;6.10;91.70
4081;DHT22;2055;50.074;8.436;2023-03-01T17:14:03;6.00;91.60
4081;DHT22;2055;50.074;8.436;2023-03-01T17:16:28;6.00;91.70
4081;DHT22;2055;50.074;8.436;2023-03-01T17:18:54;5.90;92.00
4081;DHT22;2055;50.074;8.436;2023-03-01T17:21:20;5.80;91.90
4081;DHT22;2055;50.074;8.436;2023-03-01T17:23:46;5.80;92.00
4081;DHT22;2055;50.074;8.436;2023-03-01T17:26:12;5.80;92.10
4081;DHT22;2055;50.074;8.436;2023-03-01T17:28:38;5.80;92.10
4081;DHT22;2055;50.074;8.436;2023-03-01T17:31:06;5.70;91.90
4081;DHT22;2055;50.074;8.436;2023-03-01T17:33:31;5.80;91.90
4081;DHT22;2055;50.074;8.436;2023-03-01T17:35:58;5.80;92.00
4081;DHT22;2055;50.074;8.436;2023-03-01T17:38:24;5.70;92.00
4081;DHT22;2055;50.074;8.436;2023-03-01T17:40:50;5.60;91.90
4081;DHT22;2055;50.074;8.436;2023-03-01T17:43:17;5.60;92.20
4081;DHT22;2055;50.074;8.436;2023-03-01T17:45:43;5.50;92.20
4081;DHT22;2055;50.074;8.436;2023-03-01T17:48:13;5.50;92.40
4081;DHT22;2055;50.074;8.436;2023-03-01T17:50:39;5.40;92.50
4081;DHT22;2055;50.074;8.436;2023-03-01T17:53:05;5.40;92.70
4081;DHT22;2055;50.074;8.436;2023-03-01T17:55:35;5.40;92.80
4081;DHT22;2055;50.074;8.436;2023-03-01T17:58:00;5.20;93.10
4081;DHT22;2055;50.074;8.436;2023-03-01T18:00:27;5.20;93.30
4081;DHT22;2055;50.074;8.436;2023-03-01T18:02:53;5.20;93.50
4081;DHT22;2055;50.074;8.436;2023-03-01T18:05:18;5.20;93.50
4081;DHT22;2055;50.074;8.436;2023-03-01T18:07:44;5.20;93.90
4081;DHT22;2055;50.074;8.436;2023-03-01T18:10:10;5.10;94.10